createdAt,value
2023-01-15T00:01:26.841Z,52.34
2023-01-15T00:03:55.288Z,51.76
2023-01-15T00:06:23.326Z,51.47
2023-01-15T00:08:50.501Z,51.99
2023-01-15T00:11:17.934Z,51.56
2023-01-15T00:13:46.138Z,51.69
2023-01-15T00:16:12.630Z,52.35
2023-01-15T00:18:39.478Z,51.59
2023-01-15T00:21:08.583Z,50.95
2023-01-15T00:23:53.796Z,51.32
2023-01-15T00:27:00.694Z,52.49
2023-01-15T00:29:27.862Z,51.87
2023-01-15T00:31:58.144Z,53.41
2023-01-15T00:34:26.049Z,52.64
2023-01-15T00:36:53.136Z,51.21
2023-01-15T00:39:20.560Z,50.10
2023-01-15T00:41:47.958Z,51.54
2023-01-15T00:44:15.660Z,51.08
2023-01-15T00:46:42.677Z,51.34
2023-01-15T00:49:09.568Z,50.83
2023-01-15T00:51:36.500Z,50.77
2023-01-15T00:54:03.800Z,50.79
2023-01-15T00:56:30.876Z,51.01
2023-01-15T00:58:57.678Z,51.15
2023-01-15T01:01:25.256Z,49.86
2023-01-15T01:03:53.006Z,49.35
2023-01-15T01:06:22.491Z,50.28
2023-01-15T01:08:50.277Z,50.19
2023-01-15T01:11:19.945Z,50.42
2023-01-15T01:13:47.483Z,50.42
2023-01-15T01:16:33.525Z,49.76
2023-01-15T01:19:03.473Z,50.69
2023-01-15T01:21:31.111Z,49.72
2023-01-15T01:24:00.155Z,50.26
2023-01-15T01:26:30.659Z,49.68
2023-01-15T01:28:57.966Z,50.22
2023-01-15T01:31:25.056Z,49.71
2023-01-15T01:33:54.684Z,49.55
2023-01-15T01:36:28.159Z,50.35
2023-01-15T01:38:55.263Z,50.10
2023-01-15T01:41:21.754Z,50.93
2023-01-15T01:43:56.460Z,49.80
2023-01-15T01:46:24.100Z,50.92
2023-01-15T01:48:53.789Z,50.40
2023-01-15T01:51:24.278Z,49.59
2023-01-15T01:53:51.008Z,50.25
2023-01-15T01:56:18.945Z,50.12
2023-01-15T01:58:51.335Z,50.35
2023-01-15T02:01:18.110Z,50.78
2023-01-15T02:03:44.919Z,50.03
2023-01-15T02:06:14.078Z,49.46
2023-01-15T02:08:41.789Z,49.13
2023-01-15T02:11:14.966Z,49.06
2023-01-15T02:14:15.305Z,49.99
2023-01-15T02:17:15.267Z,49.32
2023-01-15T02:20:19.572Z,48.32
2023-01-15T02:23:16.036Z,48.79
2023-01-15T02:26:12.199Z,49.51
2023-01-15T02:28:42.036Z,49.23
2023-01-15T02:31:17.344Z,49.46
2023-01-15T02:33:52.434Z,49.91
2023-01-15T02:36:23.649Z,49.05
2023-01-15T02:38:55.750Z,50.30
2023-01-15T02:41:31.926Z,49.53
2023-01-15T02:44:01.540Z,50.30
2023-01-15T02:46:33.120Z,51.17
2023-01-15T02:49:05.397Z,50.81
2023-01-15T02:51:41.038Z,51.11
2023-01-15T02:54:13.150Z,50.90
2023-01-15T02:56:42.963Z,50.33
2023-01-15T02:59:15.289Z,49.86
2023-01-15T03:01:46.802Z,49.76
2023-01-15T03:04:29.056Z,48.80
2023-01-15T03:07:09.685Z,48.25
2023-01-15T03:09:37.952Z,48.72
2023-01-15T03:12:14.716Z,49.01
2023-01-15T03:15:09.672Z,48.92
2023-01-15T03:17:54.351Z,50.25
2023-01-15T03:20:26.512Z,49.72
2023-01-15T03:23:00.520Z,49.72
2023-01-15T03:25:33.165Z,49.81
2023-01-15T03:28:02.985Z,50.49
2023-01-15T03:30:30.025Z,50.00
2023-01-15T03:32:56.820Z,49.96
2023-01-15T03:35:46.005Z,50.19
2023-01-15T03:38:22.785Z,49.69
2023-01-15T03:41:24.855Z,50.29
2023-01-15T03:44:12.941Z,51.44
2023-01-15T03:47:02.802Z,49.33
2023-01-15T03:49:47.659Z,50.13
2023-01-15T03:52:39.307Z,49.58
2023-01-15T03:55:15.490Z,49.30
2023-01-15T03:57:55.552Z,50.04
2023-01-15T04:00:27.456Z,50.72
2023-01-15T04:03:00.138Z,49.51
2023-01-15T04:05:31.721Z,49.61
2023-01-15T04:08:00.094Z,50.69
2023-01-15T04:10:27.790Z,51.44
2023-01-15T04:12:56.418Z,51.75
2023-01-15T04:15:23.189Z,51.49
2023-01-15T04:17:49.806Z,50.75
2023-01-15T04:20:18.308Z,50.54
2023-01-15T04:22:47.202Z,50.50
2023-01-15T04:25:13.728Z,50.90
2023-01-15T04:27:40.572Z,51.31
2023-01-15T04:30:07.686Z,52.27
2023-01-15T04:32:34.211Z,52.00
2023-01-15T04:35:00.719Z,52.69
2023-01-15T04:37:27.233Z,53.01
2023-01-15T04:39:54.193Z,53.47
2023-01-15T04:42:39.270Z,51.27
2023-01-15T04:45:06.487Z,51.02
2023-01-15T04:47:33.422Z,50.11
2023-01-15T04:49:59.970Z,49.16
2023-01-15T04:52:26.761Z,49.86
2023-01-15T04:54:55.202Z,49.79
2023-01-15T04:57:21.734Z,51.41
2023-01-15T04:59:48.300Z,50.93
2023-01-15T05:02:15.602Z,51.93
2023-01-15T05:04:42.534Z,50.91
2023-01-15T05:07:09.838Z,51.92
2023-01-15T05:09:36.534Z,52.21
2023-01-15T05:12:03.205Z,51.50
2023-01-15T05:14:30.101Z,51.00
2023-01-15T05:16:57.116Z,50.80
2023-01-15T05:19:23.765Z,51.22
2023-01-15T05:21:52.438Z,49.54
2023-01-15T05:24:19.261Z,50.20
2023-01-15T05:26:46.079Z,51.63
2023-01-15T05:29:13.479Z,50.65
2023-01-15T05:31:41.840Z,51.34
2023-01-15T05:34:09.862Z,51.17
2023-01-15T05:36:37.517Z,51.67
2023-01-15T05:39:05.595Z,52.04
2023-01-15T05:41:50.625Z,50.94
2023-01-15T05:44:23.829Z,51.80
2023-01-15T05:46:53.178Z,51.06
2023-01-15T05:49:22.222Z,51.08
2023-01-15T05:51:49.529Z,50.19
2023-01-15T05:54:21.029Z,50.01
2023-01-15T05:56:48.806Z,49.68
2023-01-15T05:59:17.545Z,49.43
2023-01-15T06:01:45.357Z,50.19
2023-01-15T06:04:17.601Z,51.21
2023-01-15T06:06:44.591Z,50.79
2023-01-15T06:09:11.232Z,52.28
2023-01-15T06:11:37.927Z,52.26
2023-01-15T06:14:04.781Z,50.73
2023-01-15T06:16:31.951Z,51.04
2023-01-15T06:19:04.069Z,51.40
2023-01-15T06:21:32.479Z,51.58
2023-01-15T06:23:59.058Z,50.91
2023-01-15T06:26:25.759Z,51.82
2023-01-15T06:28:52.869Z,51.19
2023-01-15T06:31:21.407Z,51.13
2023-01-15T06:33:47.997Z,52.28
2023-01-15T06:36:17.047Z,51.69
2023-01-15T06:38:44.772Z,52.36
2023-01-15T06:41:34.361Z,51.58
2023-01-15T06:44:19.526Z,51.38
2023-01-15T06:47:07.238Z,50.41
2023-01-15T06:49:35.290Z,50.59
2023-01-15T06:52:02.582Z,49.68
2023-01-15T06:54:29.126Z,50.40
2023-01-15T06:56:55.647Z,50.43
2023-01-15T06:59:22.366Z,50.17
2023-01-15T07:01:49.140Z,49.08
2023-01-15T07:04:16.410Z,48.59
2023-01-15T07:06:43.276Z,48.01
2023-01-15T07:09:10.312Z,48.87
2023-01-15T07:11:49.166Z,48.14
2023-01-15T07:14:24.880Z,47.53
2023-01-15T07:16:52.635Z,48.77
2023-01-15T07:19:20.156Z,48.85
2023-01-15T07:21:47.374Z,49.49
2023-01-15T07:24:14.191Z,49.57
2023-01-15T07:26:41.598Z,49.52
2023-01-15T07:29:08.136Z,50.68
2023-01-15T07:31:34.979Z,50.25
2023-01-15T07:34:01.476Z,50.31
2023-01-15T07:36:28.444Z,50.13
2023-01-15T07:38:55.064Z,49.28
2023-01-15T07:41:40.632Z,49.17
2023-01-15T07:44:30.252Z,49.06
2023-01-15T07:47:16.039Z,49.58
2023-01-15T07:49:46.013Z,50.03
2023-01-15T07:52:20.051Z,49.09
2023-01-15T07:54:48.069Z,48.17
2023-01-15T07:57:18.062Z,48.49
2023-01-15T07:59:45.129Z,50.31
2023-01-15T08:02:12.893Z,50.49
2023-01-15T08:04:39.655Z,50.10
2023-01-15T08:07:06.752Z,49.44
2023-01-15T08:09:33.278Z,50.14
2023-01-15T08:12:19.213Z,49.51
2023-01-15T08:15:21.846Z,48.66
2023-01-15T08:17:50.209Z,48.71
2023-01-15T08:20:19.276Z,50.13
2023-01-15T08:22:46.759Z,48.87
2023-01-15T08:25:16.633Z,48.64
2023-01-15T08:27:43.896Z,49.53
2023-01-15T08:30:19.307Z,49.16
2023-01-15T08:32:46.151Z,48.52
2023-01-15T08:35:13.531Z,48.23
2023-01-15T08:37:41.538Z,48.00
2023-01-15T08:40:09.572Z,48.01
2023-01-15T08:42:36.134Z,48.81
2023-01-15T08:45:02.681Z,49.23
2023-01-15T08:47:29.187Z,47.56
2023-01-15T08:49:55.711Z,48.77
2023-01-15T08:52:22.211Z,48.22
2023-01-15T08:54:48.851Z,50.53
2023-01-15T08:57:15.362Z,52.33
2023-01-15T08:59:43.295Z,52.09
2023-01-15T09:02:14.233Z,52.98
2023-01-15T09:04:40.995Z,52.21
2023-01-15T09:07:07.646Z,51.06
2023-01-15T09:09:34.313Z,45.11
2023-01-15T09:12:00.815Z,48.91
2023-01-15T09:14:59.375Z,49.67
2023-01-15T09:17:14.007Z,50.88
2023-01-15T09:19:40.522Z,50.47
2023-01-15T09:22:07.014Z,49.31
2023-01-15T09:24:34.401Z,48.58
2023-01-15T09:27:02.336Z,46.83
2023-01-15T09:29:28.830Z,45.81
2023-01-15T09:31:55.359Z,44.38
2023-01-15T09:34:21.865Z,43.97
2023-01-15T09:36:48.407Z,44.47
2023-01-15T09:39:14.918Z,46.55
2023-01-15T09:42:00.320Z,46.59
2023-01-15T09:44:37.009Z,46.46
2023-01-15T09:47:07.508Z,47.01
2023-01-15T09:49:53.652Z,48.84
2023-01-15T09:52:43.151Z,51.43
2023-01-15T09:55:15.233Z,50.69
2023-01-15T09:57:43.335Z,50.66
2023-01-15T10:00:19.562Z,50.08
2023-01-15T10:02:58.951Z,51.20
2023-01-15T10:05:35.150Z,53.26
2023-01-15T10:08:23.357Z,52.92
2023-01-15T10:11:03.044Z,52.12
2023-01-15T10:13:43.425Z,50.31
2023-01-15T10:16:11.518Z,49.46
2023-01-15T10:18:40.130Z,50.08
2023-01-15T10:21:32.406Z,52.39
2023-01-15T10:24:20.489Z,53.38
2023-01-15T10:26:55.118Z,53.73
2023-01-15T10:29:31.082Z,53.43
2023-01-15T10:32:21.198Z,52.02
2023-01-15T10:35:25.192Z,49.22
2023-01-15T10:38:25.786Z,50.68
2023-01-15T10:41:18.429Z,48.18
2023-01-15T10:43:53.820Z,48.05
2023-01-15T10:46:30.199Z,48.02
2023-01-15T10:49:02.850Z,47.61
2023-01-15T10:51:47.391Z,47.08
2023-01-15T10:54:38.466Z,46.71
2023-01-15T10:57:21.813Z,47.63
2023-01-15T10:59:56.334Z,47.19
2023-01-15T11:02:42.946Z,47.87
2023-01-15T11:05:21.219Z,48.01
2023-01-15T11:08:15.267Z,47.67
2023-01-15T11:10:40.614Z,47.67
2023-01-15T11:13:40.196Z,46.63
2023-01-15T11:16:34.181Z,47.80
2023-01-15T11:19:23.045Z,47.27
2023-01-15T11:21:51.384Z,46.69
2023-01-15T11:24:18.860Z,46.17
2023-01-15T11:26:52.062Z,47.73
2023-01-15T11:29:34.170Z,47.01
2023-01-15T11:32:01.125Z,46.68
2023-01-15T11:34:27.620Z,46.74
2023-01-15T11:37:06.743Z,46.48
2023-01-15T11:39:33.438Z,46.76
2023-01-15T11:42:23.878Z,46.38
2023-01-15T11:45:11.252Z,46.12
2023-01-15T11:47:56.542Z,46.21
2023-01-15T11:50:41.936Z,46.54
2023-01-15T11:53:19.665Z,46.30
2023-01-15T11:56:02.468Z,47.34
2023-01-15T11:58:33.757Z,46.62
2023-01-15T12:01:01.149Z,46.90
2023-01-15T12:03:30.696Z,46.77
2023-01-15T12:06:05.139Z,46.45
2023-01-15T12:08:55.892Z,46.95
2023-01-15T12:12:00.175Z,46.77
2023-01-15T12:14:39.460Z,46.53
2023-01-15T12:17:20.807Z,46.95
2023-01-15T12:19:56.390Z,46.31
2023-01-15T12:22:44.698Z,45.92
2023-01-15T12:25:23.828Z,45.79
2023-01-15T12:27:55.374Z,45.91
2023-01-15T12:30:31.576Z,44.90
2023-01-15T12:33:13.844Z,46.74
2023-01-15T12:35:48.209Z,47.02
2023-01-15T12:38:25.596Z,46.49
2023-01-15T12:40:59.787Z,46.84
2023-01-15T12:43:46.439Z,47.19
2023-01-15T12:46:23.186Z,46.70
2023-01-15T12:48:56.041Z,47.04
2023-01-15T12:51:47.125Z,46.25
2023-01-15T12:54:17.812Z,46.31
2023-01-15T12:57:02.836Z,46.40
2023-01-15T12:59:36.802Z,46.93
2023-01-15T13:02:20.219Z,46.70
2023-01-15T13:04:51.295Z,46.23
2023-01-15T13:07:31.464Z,46.64
2023-01-15T13:10:16.035Z,48.19
2023-01-15T13:12:42.780Z,47.95
2023-01-15T13:15:14.799Z,48.42
2023-01-15T13:18:09.221Z,46.99
2023-01-15T13:20:52.540Z,47.62
2023-01-15T13:23:44.320Z,48.46
2023-01-15T13:26:30.663Z,48.43
2023-01-15T13:28:59.808Z,49.13
2023-01-15T13:31:53.903Z,47.65
2023-01-15T13:34:44.896Z,46.47
2023-01-15T13:37:20.361Z,47.22
2023-01-15T13:39:49.171Z,47.46
2023-01-15T13:42:32.466Z,47.55
2023-01-15T13:45:04.461Z,47.40
2023-01-15T13:47:35.007Z,47.64
2023-01-15T13:50:12.998Z,46.98
2023-01-15T13:52:39.601Z,47.00
2023-01-15T13:55:15.423Z,47.71
2023-01-15T13:57:43.209Z,46.95
2023-01-15T14:00:40.511Z,47.44
2023-01-15T14:03:31.602Z,48.10
2023-01-15T14:06:02.858Z,47.50
2023-01-15T14:08:44.522Z,47.97
2023-01-15T14:11:35.828Z,48.20
2023-01-15T14:14:14.261Z,47.57
2023-01-15T14:17:06.774Z,47.34
2023-01-15T14:19:51.918Z,49.61
2023-01-15T14:22:56.052Z,48.05
2023-01-15T14:25:58.914Z,48.34
2023-01-15T14:28:39.275Z,47.20
2023-01-15T14:31:19.692Z,47.01
2023-01-15T14:33:58.924Z,46.19
2023-01-15T14:36:34.081Z,46.13
2023-01-15T14:39:03.395Z,46.25
2023-01-15T14:41:33.527Z,47.76
2023-01-15T14:44:02.610Z,48.15
2023-01-15T14:46:34.526Z,47.74
2023-01-15T14:49:02.277Z,47.07
2023-01-15T14:51:37.463Z,47.49
2023-01-15T14:54:10.943Z,47.73
2023-01-15T14:56:44.193Z,49.29
2023-01-15T14:59:20.775Z,50.47
2023-01-15T15:02:15.985Z,48.71
2023-01-15T15:04:53.915Z,49.64
2023-01-15T15:07:24.413Z,50.38
2023-01-15T15:10:08.140Z,49.80
2023-01-15T15:12:42.550Z,49.98
2023-01-15T15:15:27.316Z,50.58
2023-01-15T15:18:01.039Z,50.73
2023-01-15T15:20:48.072Z,49.16
2023-01-15T15:23:25.783Z,50.80
2023-01-15T15:25:56.791Z,50.80
2023-01-15T15:28:23.969Z,49.32
2023-01-15T15:30:51.284Z,50.38
2023-01-15T15:33:21.726Z,50.13
2023-01-15T15:35:52.373Z,49.58
2023-01-15T15:38:20.992Z,49.03
2023-01-15T15:40:52.197Z,49.77
2023-01-15T15:44:09.894Z,50.10
2023-01-15T15:46:55.255Z,50.28
2023-01-15T15:49:21.815Z,50.95
2023-01-15T15:51:53.279Z,52.19
2023-01-15T15:54:37.885Z,52.14
2023-01-15T15:57:20.239Z,51.50
2023-01-15T15:59:51.856Z,50.85
2023-01-15T16:02:27.609Z,51.38
2023-01-15T16:04:56.087Z,51.06
2023-01-15T16:07:27.018Z,50.56
2023-01-15T16:09:58.045Z,51.67
2023-01-15T16:12:28.964Z,50.70
2023-01-15T16:14:57.823Z,50.85
2023-01-15T16:17:28.671Z,50.90
2023-01-15T16:19:56.646Z,50.39
2023-01-15T16:22:23.461Z,49.67
2023-01-15T16:24:59.486Z,49.99
2023-01-15T16:27:30.161Z,50.94
2023-01-15T16:29:56.770Z,49.89
2023-01-15T16:32:28.697Z,51.62
2023-01-15T16:35:07.886Z,52.46
2023-01-15T16:37:35.848Z,52.55
2023-01-15T16:40:05.535Z,53.30
2023-01-15T16:42:43.726Z,52.27
2023-01-15T16:45:23.662Z,52.38
2023-01-15T16:48:08.530Z,52.55
2023-01-15T16:50:37.197Z,51.94
2023-01-15T16:53:05.846Z,51.28
2023-01-15T16:55:43.787Z,52.01
2023-01-15T16:58:15.067Z,52.18
2023-01-15T17:00:48.072Z,52.75
2023-01-15T17:03:18.985Z,53.29
2023-01-15T17:05:52.856Z,52.62
2023-01-15T17:08:41.791Z,53.70
2023-01-15T17:11:21.003Z,53.64
2023-01-15T17:13:48.779Z,54.22
2023-01-15T17:16:20.845Z,53.64
2023-01-15T17:18:49.909Z,53.24
2023-01-15T17:21:28.697Z,52.62
2023-01-15T17:23:56.235Z,53.23
2023-01-15T17:26:25.204Z,55.03
2023-01-15T17:28:52.333Z,54.68
2023-01-15T17:31:30.597Z,56.83
2023-01-15T17:33:59.423Z,57.41
2023-01-15T17:36:26.555Z,54.70
2023-01-15T17:38:54.158Z,55.83
2023-01-15T17:41:22.229Z,55.39
2023-01-15T17:43:49.947Z,55.57
2023-01-15T17:46:17.169Z,56.05
2023-01-15T17:48:45.156Z,55.55
2023-01-15T17:51:15.648Z,54.99
2023-01-15T17:53:43.037Z,55.58
2023-01-15T17:56:28.780Z,56.27
2023-01-15T17:59:15.556Z,55.00
2023-01-15T18:02:03.638Z,55.81
2023-01-15T18:04:57.696Z,55.62
2023-01-15T18:07:27.836Z,54.97
2023-01-15T18:09:56.480Z,56.13
2023-01-15T18:12:23.429Z,56.89
2023-01-15T18:14:50.237Z,57.23
2023-01-15T18:17:16.774Z,56.08
2023-01-15T18:19:43.799Z,56.10
2023-01-15T18:22:10.571Z,56.03
2023-01-15T18:24:37.132Z,56.01
2023-01-15T18:27:03.708Z,56.62
2023-01-15T18:29:31.250Z,57.55
2023-01-15T18:31:58.033Z,57.97
2023-01-15T18:34:24.527Z,58.33
2023-01-15T18:36:51.051Z,57.74
2023-01-15T18:39:17.552Z,58.44
2023-01-15T18:41:44.296Z,57.41
2023-01-15T18:44:35.152Z,57.66
2023-01-15T18:47:09.593Z,58.11
2023-01-15T18:49:36.372Z,57.65
2023-01-15T18:52:21.568Z,57.54
2023-01-15T18:54:48.711Z,58.00
2023-01-15T18:57:16.455Z,59.95
2023-01-15T18:59:45.133Z,58.26
2023-01-15T19:02:13.493Z,57.84
2023-01-15T19:04:41.059Z,57.00
2023-01-15T19:07:08.054Z,56.38
2023-01-15T19:09:36.718Z,55.42
2023-01-15T19:12:05.371Z,55.14
2023-01-15T19:14:52.611Z,55.70
2023-01-15T19:17:42.969Z,56.19
2023-01-15T19:20:12.063Z,55.81
2023-01-15T19:22:57.136Z,55.22
2023-01-15T19:25:25.673Z,55.54
2023-01-15T19:27:53.009Z,54.88
2023-01-15T19:30:19.606Z,53.81
2023-01-15T19:32:46.453Z,54.07
2023-01-15T19:35:13.085Z,54.17
2023-01-15T19:37:39.875Z,54.69
2023-01-15T19:40:14.266Z,54.40
2023-01-15T19:42:59.488Z,53.86
2023-01-15T19:45:44.942Z,53.67
2023-01-15T19:48:32.600Z,52.79
2023-01-15T19:50:59.394Z,52.82
2023-01-15T19:53:26.319Z,52.65
2023-01-15T19:55:53.041Z,53.94
2023-01-15T19:58:20.703Z,53.58
2023-01-15T20:00:48.630Z,53.77
2023-01-15T20:03:16.382Z,55.13
2023-01-15T20:05:43.500Z,54.52
2023-01-15T20:08:13.953Z,53.09
2023-01-15T20:10:42.755Z,53.67
2023-01-15T20:13:31.972Z,54.26
2023-01-15T20:16:01.607Z,53.46
2023-01-15T20:18:28.712Z,54.51
2023-01-15T20:20:55.969Z,53.22
2023-01-15T20:23:49.506Z,53.48
2023-01-15T20:26:17.114Z,53.38
2023-01-15T20:28:47.188Z,53.37
2023-01-15T20:31:15.869Z,53.53
2023-01-15T20:33:42.399Z,54.35
2023-01-15T20:36:09.685Z,52.96
2023-01-15T20:38:36.320Z,51.97
2023-01-15T20:41:26.807Z,53.18
2023-01-15T20:44:12.604Z,53.37
2023-01-15T20:46:39.491Z,47.68
2023-01-15T20:49:25.411Z,51.10
2023-01-15T20:51:52.743Z,52.71
2023-01-15T20:54:20.666Z,51.73
2023-01-15T20:56:47.631Z,52.86
2023-01-15T20:59:14.364Z,52.40
2023-01-15T21:01:41.009Z,54.78
2023-01-15T21:04:07.888Z,50.88
2023-01-15T21:06:34.454Z,52.20
2023-01-15T21:09:01.085Z,51.94
2023-01-15T21:11:27.811Z,51.99
2023-01-15T21:13:54.832Z,53.60
2023-01-15T21:16:21.627Z,53.67
2023-01-15T21:18:49.308Z,52.67
2023-01-15T21:21:19.019Z,52.93
2023-01-15T21:23:45.696Z,52.52
2023-01-15T21:26:15.876Z,53.59
2023-01-15T21:28:44.139Z,52.16
2023-01-15T21:31:11.386Z,52.02
2023-01-15T21:33:39.743Z,52.03
2023-01-15T21:36:08.007Z,52.02
2023-01-15T21:38:34.673Z,51.35
2023-01-15T21:41:14.905Z,51.05
2023-01-15T21:44:01.324Z,51.29
2023-01-15T21:46:28.387Z,51.93
2023-01-15T21:48:56.202Z,51.72
2023-01-15T21:51:23.371Z,50.87
2023-01-15T21:53:49.915Z,50.63
2023-01-15T21:56:17.017Z,51.47
2023-01-15T21:58:43.530Z,50.75
2023-01-15T22:01:12.132Z,50.10
2023-01-15T22:03:39.410Z,50.97
2023-01-15T22:06:07.783Z,50.92
2023-01-15T22:08:34.514Z,50.05
2023-01-15T22:11:03.484Z,50.26
2023-01-15T22:13:30.062Z,50.05
2023-01-15T22:15:56.561Z,50.88
2023-01-15T22:18:27.657Z,51.17
2023-01-15T22:21:07.586Z,51.20
2023-01-15T22:23:34.740Z,50.94
2023-01-15T22:26:01.680Z,50.76
2023-01-15T22:28:28.203Z,51.61
2023-01-15T22:30:54.722Z,51.15
2023-01-15T22:33:21.441Z,50.95
2023-01-15T22:35:59.197Z,51.01
2023-01-15T22:38:26.638Z,50.34
2023-01-15T22:40:53.442Z,49.47
2023-01-15T22:43:19.961Z,51.36
2023-01-15T22:45:46.541Z,50.59
2023-01-15T22:48:13.212Z,50.06
2023-01-15T22:50:39.853Z,50.39
2023-01-15T22:53:06.384Z,49.55
2023-01-15T22:55:33.007Z,49.40
2023-01-15T22:58:00.029Z,50.70
2023-01-15T23:00:27.259Z,51.36
2023-01-15T23:03:04.747Z,51.15
2023-01-15T23:05:36.756Z,51.27
2023-01-15T23:08:03.528Z,50.29
2023-01-15T23:10:30.582Z,49.66
2023-01-15T23:12:57.160Z,49.45
2023-01-15T23:15:24.246Z,49.28
2023-01-15T23:17:50.810Z,49.84
2023-01-15T23:20:17.415Z,49.54
2023-01-15T23:22:43.967Z,49.84
2023-01-15T23:25:10.689Z,50.10
2023-01-15T23:27:37.356Z,49.66
2023-01-15T23:30:04.720Z,48.92
2023-01-15T23:32:31.234Z,49.00
2023-01-15T23:34:57.756Z,48.55
2023-01-15T23:37:24.262Z,48.76
2023-01-15T23:39:51.016Z,47.71
2023-01-15T23:42:35.985Z,48.59
2023-01-15T23:45:21.158Z,48.23
2023-01-15T23:47:47.652Z,47.62
2023-01-15T23:50:14.498Z,47.93
2023-01-15T23:52:41.004Z,48.75
2023-01-15T23:55:07.961Z,48.46
2023-01-15T23:57:34.564Z,47.49
